CXY weather

Cat Cay Airport
North Cat Cay, Bimini, Bahamas

Public forecast

Using degrees Celsius for public forecast. Weather courtesy of forecast.io.

METAR (pilot weather report)

Closest report is Fort Lauderdale Hollywood International Airport, 56.7 nm (105.0 km) WNW. Retrieved 2019/09/18 00:53 UTC (56 minutes ago):

KFLL 180053Z 03010KT 10SM FEW040 28/23 A2990 RMK AO2 SLP124 T02830228

TAF (pilot weather forecast)

Forecast is more than 12 hours old.

Closest forecast is Fort Lauderdale Hollywood International Airport, 56.7 nm (105.0 km) WNW. Retrieved 2019/09/17 00:48 UTC (1 day ago):

TAF KFLL 172342Z 1800/1906 02008KT P6SM SCT050 FM180300 05010KT P6SM FEW030 SCT250 FM181600 06014G24KT P6SM SCT030 SCT250 FM190200 04011KT P6SM FEW050 SCT250